sensor_id;sensor_type;location;lat;lon;timestamp;P1;durP1;ratioP1;P2;durP2;ratioP2
55300;SDS011;58302;51.446;-2.000;2023-11-22T00:01:05;14.75;;;8.35;;
55300;SDS011;58302;51.446;-2.000;2023-11-22T00:03:31;13.45;;;7.93;;
55300;SDS011;58302;51.446;-2.000;2023-11-22T00:05:58;13.20;;;7.53;;
55300;SDS011;58302;51.446;-2.000;2023-11-22T00:08:24;14.88;;;7.07;;
55300;SDS011;58302;51.446;-2.000;2023-11-22T00:10:50;13.82;;;7.85;;
55300;SDS011;58302;51.446;-2.000;2023-11-22T00:13:16;15.95;;;7.68;;
55300;SDS011;58302;51.446;-2.000;2023-11-22T00:15:42;13.65;;;8.60;;
55300;SDS011;58302;51.446;-2.000;2023-11-22T00:18:08;14.13;;;9.07;;
55300;SDS011;58302;51.446;-2.000;2023-11-22T00:20:34;20.40;;;9.32;;
55300;SDS011;58302;51.446;-2.000;2023-11-22T00:23:00;12.43;;;8.52;;
55300;SDS011;58302;51.446;-2.000;2023-11-22T00:25:26;15.38;;;7.75;;
55300;SDS011;58302;51.446;-2.000;2023-11-22T00:27:52;13.32;;;7.88;;
55300;SDS011;58302;51.446;-2.000;2023-11-22T00:30:18;17.42;;;9.23;;
55300;SDS011;58302;51.446;-2.000;2023-11-22T00:32:44;15.27;;;8.18;;
55300;SDS011;58302;51.446;-2.000;2023-11-22T00:35:13;18.33;;;9.85;;
55300;SDS011;58302;51.446;-2.000;2023-11-22T00:37:52;15.98;;;9.20;;
55300;SDS011;58302;51.446;-2.000;2023-11-22T00:40:26;18.95;;;10.57;;
55300;SDS011;58302;51.446;-2.000;2023-11-22T00:48:48;15.32;;;8.25;;
55300;SDS011;58302;51.446;-2.000;2023-11-22T00:51:14;16.08;;;8.80;;
55300;SDS011;58302;51.446;-2.000;2023-11-22T00:53:40;19.27;;;8.52;;
55300;SDS011;58302;51.446;-2.000;2023-11-22T00:56:06;12.90;;;7.13;;
55300;SDS011;58302;51.446;-2.000;2023-11-22T00:58:32;14.98;;;7.75;;
55300;SDS011;58302;51.446;-2.000;2023-11-22T01:00:58;21.35;;;8.85;;
55300;SDS011;58302;51.446;-2.000;2023-11-22T01:03:24;17.08;;;9.23;;
55300;SDS011;58302;51.446;-2.000;2023-11-22T01:05:51;16.77;;;9.05;;
55300;SDS011;58302;51.446;-2.000;2023-11-22T01:08:17;11.13;;;7.05;;
55300;SDS011;58302;51.446;-2.000;2023-11-22T01:10:44;16.08;;;6.82;;
55300;SDS011;58302;51.446;-2.000;2023-11-22T01:13:11;9.88;;;6.85;;
55300;SDS011;58302;51.446;-2.000;2023-11-22T01:15:37;13.07;;;7.15;;
55300;SDS011;58302;51.446;-2.000;2023-11-22T01:18:03;14.70;;;8.27;;
55300;SDS011;58302;51.446;-2.000;2023-11-22T01:20:29;16.23;;;7.90;;
55300;SDS011;58302;51.446;-2.000;2023-11-22T01:22:55;12.73;;;7.38;;
55300;SDS011;58302;51.446;-2.000;2023-11-22T01:25:21;12.05;;;7.10;;
55300;SDS011;58302;51.446;-2.000;2023-11-22T01:27:47;17.23;;;7.47;;
55300;SDS011;58302;51.446;-2.000;2023-11-22T01:30:13;13.93;;;6.97;;
55300;SDS011;58302;51.446;-2.000;2023-11-22T01:32:40;15.82;;;9.10;;
55300;SDS011;58302;51.446;-2.000;2023-11-22T01:35:06;13.30;;;8.30;;
55300;SDS011;58302;51.446;-2.000;2023-11-22T01:37:33;14.07;;;8.02;;
55300;SDS011;58302;51.446;-2.000;2023-11-22T01:39:59;13.60;;;8.38;;
55300;SDS011;58302;51.446;-2.000;2023-11-22T01:42:25;15.25;;;8.20;;
55300;SDS011;58302;51.446;-2.000;2023-11-22T01:44:51;15.55;;;9.23;;
55300;SDS011;58302;51.446;-2.000;2023-11-22T01:47:18;20.02;;;8.82;;
55300;SDS011;58302;51.446;-2.000;2023-11-22T01:49:45;10.27;;;6.53;;
55300;SDS011;58302;51.446;-2.000;2023-11-22T01:52:13;16.42;;;8.07;;
55300;SDS011;58302;51.446;-2.000;2023-11-22T01:54:39;14.18;;;6.80;;
55300;SDS011;58302;51.446;-2.000;2023-11-22T01:57:08;12.88;;;7.63;;
55300;SDS011;58302;51.446;-2.000;2023-11-22T01:59:35;13.40;;;7.07;;
55300;SDS011;58302;51.446;-2.000;2023-11-22T02:02:01;15.68;;;7.40;;
55300;SDS011;58302;51.446;-2.000;2023-11-22T02:04:27;13.15;;;7.88;;
55300;SDS011;58302;51.446;-2.000;2023-11-22T02:06:53;14.35;;;8.68;;
55300;SDS011;58302;51.446;-2.000;2023-11-22T02:09:19;12.77;;;6.80;;
55300;SDS011;58302;51.446;-2.000;2023-11-22T02:11:47;14.65;;;8.20;;
55300;SDS011;58302;51.446;-2.000;2023-11-22T02:14:15;13.23;;;8.48;;
55300;SDS011;58302;51.446;-2.000;2023-11-22T02:16:41;10.85;;;6.88;;
55300;SDS011;58302;51.446;-2.000;2023-11-22T02:19:08;12.60;;;6.65;;
55300;SDS011;58302;51.446;-2.000;2023-11-22T02:21:40;10.60;;;6.95;;
55300;SDS011;58302;51.446;-2.000;2023-11-22T02:24:07;10.45;;;6.47;;
55300;SDS011;58302;51.446;-2.000;2023-11-22T02:26:33;12.57;;;7.90;;
55300;SDS011;58302;51.446;-2.000;2023-11-22T02:28:59;9.13;;;6.07;;
55300;SDS011;58302;51.446;-2.000;2023-11-22T02:31:25;12.25;;;7.65;;
55300;SDS011;58302;51.446;-2.000;2023-11-22T02:33:53;13.20;;;6.72;;
55300;SDS011;58302;51.446;-2.000;2023-11-22T02:36:22;13.13;;;7.35;;
55300;SDS011;58302;51.446;-2.000;2023-11-22T02:38:48;11.32;;;7.50;;
55300;SDS011;58302;51.446;-2.000;2023-11-22T02:41:14;11.43;;;7.10;;
55300;SDS011;58302;51.446;-2.000;2023-11-22T02:43:40;11.68;;;7.00;;
55300;SDS011;58302;51.446;-2.000;2023-11-22T02:46:08;12.95;;;7.80;;
55300;SDS011;58302;51.446;-2.000;2023-11-22T02:48:34;11.07;;;7.50;;
55300;SDS011;58302;51.446;-2.000;2023-11-22T02:51:00;13.68;;;6.82;;
55300;SDS011;58302;51.446;-2.000;2023-11-22T02:53:27;14.48;;;6.68;;
55300;SDS011;58302;51.446;-2.000;2023-11-22T02:55:58;12.15;;;8.23;;
55300;SDS011;58302;51.446;-2.000;2023-11-22T02:58:29;9.88;;;6.90;;
55300;SDS011;58302;51.446;-2.000;2023-11-22T03:00:56;10.68;;;6.93;;
55300;SDS011;58302;51.446;-2.000;2023-11-22T03:03:23;14.35;;;7.53;;
55300;SDS011;58302;51.446;-2.000;2023-11-22T03:05:52;18.05;;;8.20;;
55300;SDS011;58302;51.446;-2.000;2023-11-22T03:08:18;11.18;;;6.47;;
55300;SDS011;58302;51.446;-2.000;2023-11-22T03:10:44;14.52;;;7.65;;
55300;SDS011;58302;51.446;-2.000;2023-11-22T03:13:10;9.18;;;6.82;;
55300;SDS011;58302;51.446;-2.000;2023-11-22T03:15:36;12.02;;;6.00;;
55300;SDS011;58302;51.446;-2.000;2023-11-22T03:18:03;13.20;;;7.00;;
55300;SDS011;58302;51.446;-2.000;2023-11-22T03:20:30;10.90;;;7.53;;
55300;SDS011;58302;51.446;-2.000;2023-11-22T03:22:58;15.52;;;8.13;;
55300;SDS011;58302;51.446;-2.000;2023-11-22T03:25:24;17.15;;;8.25;;
55300;SDS011;58302;51.446;-2.000;2023-11-22T03:27:50;16.60;;;7.75;;
55300;SDS011;58302;51.446;-2.000;2023-11-22T03:30:17;13.25;;;8.18;;
55300;SDS011;58302;51.446;-2.000;2023-11-22T03:32:43;11.88;;;7.97;;
55300;SDS011;58302;51.446;-2.000;2023-11-22T03:35:09;12.25;;;7.90;;
55300;SDS011;58302;51.446;-2.000;2023-11-22T03:37:37;10.45;;;6.82;;
55300;SDS011;58302;51.446;-2.000;2023-11-22T03:40:03;16.23;;;7.43;;
55300;SDS011;58302;51.446;-2.000;2023-11-22T03:42:30;12.65;;;7.40;;
55300;SDS011;58302;51.446;-2.000;2023-11-22T03:44:55;16.25;;;7.53;;
55300;SDS011;58302;51.446;-2.000;2023-11-22T03:47:24;14.85;;;9.02;;
55300;SDS011;58302;51.446;-2.000;2023-11-22T03:49:50;13.07;;;7.97;;
55300;SDS011;58302;51.446;-2.000;2023-11-22T03:52:16;14.35;;;8.30;;
55300;SDS011;58302;51.446;-2.000;2023-11-22T03:54:42;14.35;;;8.52;;
55300;SDS011;58302;51.446;-2.000;2023-11-22T03:57:08;15.52;;;9.55;;
55300;SDS011;58302;51.446;-2.000;2023-11-22T03:59:34;18.00;;;9.88;;
55300;SDS011;58302;51.446;-2.000;2023-11-22T04:02:00;18.65;;;11.00;;
55300;SDS011;58302;51.446;-2.000;2023-11-22T04:04:27;15.15;;;9.00;;
55300;SDS011;58302;51.446;-2.000;2023-11-22T04:06:53;16.35;;;9.70;;
55300;SDS011;58302;51.446;-2.000;2023-11-22T04:09:20;19.02;;;9.48;;
55300;SDS011;58302;51.446;-2.000;2023-11-22T04:11:46;18.20;;;10.43;;
55300;SDS011;58302;51.446;-2.000;2023-11-22T04:14:14;16.17;;;8.65;;
55300;SDS011;58302;51.446;-2.000;2023-11-22T04:16:40;20.40;;;8.95;;
55300;SDS011;58302;51.446;-2.000;2023-11-22T04:19:07;20.45;;;10.05;;
55300;SDS011;58302;51.446;-2.000;2023-11-22T04:21:33;18.50;;;9.00;;
55300;SDS011;58302;51.446;-2.000;2023-11-22T04:24:00;14.70;;;8.80;;
55300;SDS011;58302;51.446;-2.000;2023-11-22T04:26:26;14.23;;;8.75;;
55300;SDS011;58302;51.446;-2.000;2023-11-22T04:28:52;15.93;;;8.45;;
55300;SDS011;58302;51.446;-2.000;2023-11-22T04:31:18;13.60;;;8.07;;
55300;SDS011;58302;51.446;-2.000;2023-11-22T04:33:44;15.02;;;9.15;;
55300;SDS011;58302;51.446;-2.000;2023-11-22T04:36:10;15.98;;;8.70;;
55300;SDS011;58302;51.446;-2.000;2023-11-22T04:38:37;14.77;;;8.48;;
55300;SDS011;58302;51.446;-2.000;2023-11-22T04:41:03;19.58;;;9.90;;
55300;SDS011;58302;51.446;-2.000;2023-11-22T04:43:29;20.35;;;9.63;;
55300;SDS011;58302;51.446;-2.000;2023-11-22T04:45:55;20.02;;;9.25;;
55300;SDS011;58302;51.446;-2.000;2023-11-22T04:48:21;15.50;;;10.02;;
55300;SDS011;58302;51.446;-2.000;2023-11-22T04:50:47;17.70;;;10.23;;
55300;SDS011;58302;51.446;-2.000;2023-11-22T04:53:13;15.52;;;9.35;;
55300;SDS011;58302;51.446;-2.000;2023-11-22T04:55:39;15.70;;;8.93;;
55300;SDS011;58302;51.446;-2.000;2023-11-22T04:58:05;13.68;;;8.38;;
55300;SDS011;58302;51.446;-2.000;2023-11-22T05:00:32;18.48;;;10.52;;
55300;SDS011;58302;51.446;-2.000;2023-11-22T05:02:58;18.88;;;9.95;;
55300;SDS011;58302;51.446;-2.000;2023-11-22T05:05:24;18.70;;;9.80;;
55300;SDS011;58302;51.446;-2.000;2023-11-22T05:07:50;16.80;;;8.40;;
55300;SDS011;58302;51.446;-2.000;2023-11-22T05:10:15;17.25;;;9.98;;
55300;SDS011;58302;51.446;-2.000;2023-11-22T05:12:42;14.75;;;9.32;;
55300;SDS011;58302;51.446;-2.000;2023-11-22T05:15:10;20.42;;;10.43;;
55300;SDS011;58302;51.446;-2.000;2023-11-22T05:17:37;19.05;;;10.02;;
55300;SDS011;58302;51.446;-2.000;2023-11-22T05:20:03;19.90;;;10.25;;
55300;SDS011;58302;51.446;-2.000;2023-11-22T05:22:31;23.40;;;12.52;;
55300;SDS011;58302;51.446;-2.000;2023-11-22T05:24:57;17.80;;;10.38;;
55300;SDS011;58302;51.446;-2.000;2023-11-22T05:27:23;20.67;;;10.68;;
55300;SDS011;58302;51.446;-2.000;2023-11-22T05:29:49;22.27;;;11.15;;
55300;SDS011;58302;51.446;-2.000;2023-11-22T05:32:15;15.23;;;9.88;;
55300;SDS011;58302;51.446;-2.000;2023-11-22T05:34:42;16.65;;;10.50;;
55300;SDS011;58302;51.446;-2.000;2023-11-22T05:37:08;19.60;;;10.98;;
55300;SDS011;58302;51.446;-2.000;2023-11-22T05:39:34;19.35;;;11.45;;
55300;SDS011;58302;51.446;-2.000;2023-11-22T05:42:02;15.13;;;10.07;;
55300;SDS011;58302;51.446;-2.000;2023-11-22T05:44:28;19.98;;;10.63;;
55300;SDS011;58302;51.446;-2.000;2023-11-22T05:46:54;21.05;;;10.32;;
55300;SDS011;58302;51.446;-2.000;2023-11-22T05:49:20;18.35;;;9.65;;
55300;SDS011;58302;51.446;-2.000;2023-11-22T05:51:46;22.52;;;11.05;;
55300;SDS011;58302;51.446;-2.000;2023-11-22T05:54:12;20.60;;;9.75;;
55300;SDS011;58302;51.446;-2.000;2023-11-22T05:56:38;19.13;;;10.73;;
55300;SDS011;58302;51.446;-2.000;2023-11-22T05:59:05;22.35;;;11.65;;
55300;SDS011;58302;51.446;-2.000;2023-11-22T06:01:31;23.20;;;10.73;;
55300;SDS011;58302;51.446;-2.000;2023-11-22T06:03:57;21.63;;;11.02;;
55300;SDS011;58302;51.446;-2.000;2023-11-22T06:06:23;20.98;;;10.55;;
55300;SDS011;58302;51.446;-2.000;2023-11-22T06:08:49;18.67;;;10.48;;
55300;SDS011;58302;51.446;-2.000;2023-11-22T06:11:15;18.63;;;10.80;;
55300;SDS011;58302;51.446;-2.000;2023-11-22T06:13:41;22.00;;;10.43;;
55300;SDS011;58302;51.446;-2.000;2023-11-22T06:16:15;20.70;;;11.35;;
55300;SDS011;58302;51.446;-2.000;2023-11-22T06:18:40;18.73;;;10.70;;
55300;SDS011;58302;51.446;-2.000;2023-11-22T06:21:09;16.83;;;9.85;;
55300;SDS011;58302;51.446;-2.000;2023-11-22T06:23:35;15.68;;;9.73;;
55300;SDS011;58302;51.446;-2.000;2023-11-22T06:26:02;20.55;;;10.73;;
55300;SDS011;58302;51.446;-2.000;2023-11-22T06:28:28;17.55;;;10.38;;
55300;SDS011;58302;51.446;-2.000;2023-11-22T06:30:54;22.45;;;11.77;;
55300;SDS011;58302;51.446;-2.000;2023-11-22T06:33:21;25.20;;;10.93;;
55300;SDS011;58302;51.446;-2.000;2023-11-22T06:35:47;20.88;;;10.98;;
55300;SDS011;58302;51.446;-2.000;2023-11-22T06:38:13;20.48;;;10.48;;
55300;SDS011;58302;51.446;-2.000;2023-11-22T06:40:39;18.15;;;11.40;;
55300;SDS011;58302;51.446;-2.000;2023-11-22T06:43:06;19.15;;;10.68;;
55300;SDS011;58302;51.446;-2.000;2023-11-22T06:45:32;21.73;;;11.32;;
55300;SDS011;58302;51.446;-2.000;2023-11-22T06:47:58;18.23;;;10.88;;
55300;SDS011;58302;51.446;-2.000;2023-11-22T06:50:24;32.80;;;12.35;;
55300;SDS011;58302;51.446;-2.000;2023-11-22T06:52:50;21.00;;;11.65;;
55300;SDS011;58302;51.446;-2.000;2023-11-22T06:55:19;23.40;;;11.68;;
55300;SDS011;58302;51.446;-2.000;2023-11-22T06:57:45;23.08;;;11.30;;
55300;SDS011;58302;51.446;-2.000;2023-11-22T07:00:11;21.40;;;11.10;;
55300;SDS011;58302;51.446;-2.000;2023-11-22T07:02:43;21.20;;;11.38;;
55300;SDS011;58302;51.446;-2.000;2023-11-22T07:05:09;24.13;;;12.23;;
55300;SDS011;58302;51.446;-2.000;2023-11-22T07:07:35;17.60;;;10.48;;
55300;SDS011;58302;51.446;-2.000;2023-11-22T07:10:02;19.27;;;10.30;;
55300;SDS011;58302;51.446;-2.000;2023-11-22T07:12:31;25.05;;;10.68;;
55300;SDS011;58302;51.446;-2.000;2023-11-22T07:15:01;19.27;;;11.23;;
55300;SDS011;58302;51.446;-2.000;2023-11-22T07:17:28;24.08;;;12.40;;
55300;SDS011;58302;51.446;-2.000;2023-11-22T07:19:54;22.00;;;12.52;;
55300;SDS011;58302;51.446;-2.000;2023-11-22T07:22:20;25.85;;;12.13;;
55300;SDS011;58302;51.446;-2.000;2023-11-22T07:24:48;25.23;;;10.13;;
55300;SDS011;58302;51.446;-2.000;2023-11-22T07:27:18;19.33;;;10.55;;
55300;SDS011;58302;51.446;-2.000;2023-11-22T07:29:44;24.48;;;9.93;;
55300;SDS011;58302;51.446;-2.000;2023-11-22T07:32:11;18.58;;;11.63;;
55300;SDS011;58302;51.446;-2.000;2023-11-22T07:34:38;22.20;;;11.93;;
55300;SDS011;58302;51.446;-2.000;2023-11-22T07:37:06;22.23;;;11.27;;
55300;SDS011;58302;51.446;-2.000;2023-11-22T07:39:33;21.25;;;9.75;;
55300;SDS011;58302;51.446;-2.000;2023-11-22T07:42:03;18.98;;;10.43;;
55300;SDS011;58302;51.446;-2.000;2023-11-22T07:44:29;21.02;;;11.13;;
55300;SDS011;58302;51.446;-2.000;2023-11-22T07:46:59;22.77;;;11.60;;
55300;SDS011;58302;51.446;-2.000;2023-11-22T07:49:25;21.10;;;11.23;;
55300;SDS011;58302;51.446;-2.000;2023-11-22T07:51:52;18.63;;;10.93;;
55300;SDS011;58302;51.446;-2.000;2023-11-22T07:54:21;27.27;;;10.70;;
55300;SDS011;58302;51.446;-2.000;2023-11-22T07:56:51;18.38;;;10.20;;
55300;SDS011;58302;51.446;-2.000;2023-11-22T07:59:20;20.38;;;11.38;;
55300;SDS011;58302;51.446;-2.000;2023-11-22T08:01:46;18.40;;;10.02;;
55300;SDS011;58302;51.446;-2.000;2023-11-22T08:04:15;18.92;;;9.95;;
55300;SDS011;58302;51.446;-2.000;2023-11-22T08:06:42;22.23;;;10.93;;
55300;SDS011;58302;51.446;-2.000;2023-11-22T08:09:08;20.52;;;10.90;;
55300;SDS011;58302;51.446;-2.000;2023-11-22T08:11:35;22.75;;;10.45;;
55300;SDS011;58302;51.446;-2.000;2023-11-22T08:14:02;21.95;;;9.98;;
55300;SDS011;58302;51.446;-2.000;2023-11-22T08:16:28;22.65;;;10.55;;
55300;SDS011;58302;51.446;-2.000;2023-11-22T08:18:54;16.63;;;9.00;;
55300;SDS011;58302;51.446;-2.000;2023-11-22T08:21:22;16.70;;;9.43;;
55300;SDS011;58302;51.446;-2.000;2023-11-22T08:23:49;16.48;;;10.25;;
55300;SDS011;58302;51.446;-2.000;2023-11-22T08:26:15;17.55;;;8.98;;
55300;SDS011;58302;51.446;-2.000;2023-11-22T08:28:42;14.98;;;9.93;;
55300;SDS011;58302;51.446;-2.000;2023-11-22T08:31:08;16.02;;;8.32;;
55300;SDS011;58302;51.446;-2.000;2023-11-22T08:33:35;18.83;;;8.68;;
55300;SDS011;58302;51.446;-2.000;2023-11-22T08:36:04;14.25;;;8.50;;
55300;SDS011;58302;51.446;-2.000;2023-11-22T08:38:31;16.60;;;9.10;;
55300;SDS011;58302;51.446;-2.000;2023-11-22T08:41:02;13.18;;;7.47;;
55300;SDS011;58302;51.446;-2.000;2023-11-22T08:43:29;11.05;;;7.30;;
55300;SDS011;58302;51.446;-2.000;2023-11-22T08:46:00;13.90;;;7.82;;
55300;SDS011;58302;51.446;-2.000;2023-11-22T08:48:30;14.23;;;7.10;;
55300;SDS011;58302;51.446;-2.000;2023-11-22T08:51:04;11.30;;;6.65;;
55300;SDS011;58302;51.446;-2.000;2023-11-22T08:53:30;11.63;;;5.53;;
55300;SDS011;58302;51.446;-2.000;2023-11-22T08:55:56;12.27;;;7.07;;
55300;SDS011;58302;51.446;-2.000;2023-11-22T09:01:10;14.80;;;7.35;;
55300;SDS011;58302;51.446;-2.000;2023-11-22T09:03:38;14.07;;;7.80;;
55300;SDS011;58302;51.446;-2.000;2023-11-22T09:06:04;16.92;;;7.55;;
55300;SDS011;58302;51.446;-2.000;2023-11-22T09:08:38;11.45;;;6.43;;
55300;SDS011;58302;51.446;-2.000;2023-11-22T09:11:04;13.75;;;7.53;;
55300;SDS011;58302;51.446;-2.000;2023-11-22T09:13:32;12.35;;;6.80;;
55300;SDS011;58302;51.446;-2.000;2023-11-22T09:15:58;14.57;;;6.85;;
55300;SDS011;58302;51.446;-2.000;2023-11-22T09:18:24;10.02;;;6.40;;
55300;SDS011;58302;51.446;-2.000;2023-11-22T09:20:50;11.52;;;7.55;;
55300;SDS011;58302;51.446;-2.000;2023-11-22T09:23:16;12.68;;;6.82;;
55300;SDS011;58302;51.446;-2.000;2023-11-22T09:25:43;13.38;;;7.13;;
55300;SDS011;58302;51.446;-2.000;2023-11-22T09:28:09;8.88;;;6.15;;
55300;SDS011;58302;51.446;-2.000;2023-11-22T09:30:35;15.40;;;6.65;;
55300;SDS011;58302;51.446;-2.000;2023-11-22T09:33:07;10.80;;;5.97;;
55300;SDS011;58302;51.446;-2.000;2023-11-22T09:35:40;11.65;;;6.88;;
55300;SDS011;58302;51.446;-2.000;2023-11-22T09:38:08;8.60;;;5.50;;
55300;SDS011;58302;51.446;-2.000;2023-11-22T09:40:40;8.05;;;5.28;;
55300;SDS011;58302;51.446;-2.000;2023-11-22T09:43:09;7.80;;;5.32;;
55300;SDS011;58302;51.446;-2.000;2023-11-22T09:45:35;9.57;;;6.20;;
55300;SDS011;58302;51.446;-2.000;2023-11-22T09:53:32;8.52;;;4.55;;
55300;SDS011;58302;51.446;-2.000;2023-11-22T09:56:07;8.30;;;4.80;;
55300;SDS011;58302;51.446;-2.000;2023-11-22T09:58:35;9.27;;;5.03;;
55300;SDS011;58302;51.446;-2.000;2023-11-22T10:01:05;9.35;;;4.60;;
55300;SDS011;58302;51.446;-2.000;2023-11-22T10:03:33;6.57;;;4.00;;
55300;SDS011;58302;51.446;-2.000;2023-11-22T10:05:59;5.72;;;4.10;;
55300;SDS011;58302;51.446;-2.000;2023-11-22T10:08:26;6.75;;;4.22;;
55300;SDS011;58302;51.446;-2.000;2023-11-22T10:10:56;9.63;;;4.63;;
55300;SDS011;58302;51.446;-2.000;2023-11-22T10:13:22;7.70;;;5.20;;
55300;SDS011;58302;51.446;-2.000;2023-11-22T10:15:51;8.85;;;3.92;;
55300;SDS011;58302;51.446;-2.000;2023-11-22T10:18:21;9.75;;;4.15;;
55300;SDS011;58302;51.446;-2.000;2023-11-22T10:20:47;3.65;;;2.90;;
55300;SDS011;58302;51.446;-2.000;2023-11-22T10:23:18;7.32;;;3.65;;
55300;SDS011;58302;51.446;-2.000;2023-11-22T10:25:52;10.27;;;3.92;;
55300;SDS011;58302;51.446;-2.000;2023-11-22T10:28:19;7.97;;;3.50;;
55300;SDS011;58302;51.446;-2.000;2023-11-22T10:30:46;5.55;;;3.05;;
55300;SDS011;58302;51.446;-2.000;2023-11-22T10:33:13;3.75;;;2.85;;
55300;SDS011;58302;51.446;-2.000;2023-11-22T10:35:43;5.05;;;2.83;;
55300;SDS011;58302;51.446;-2.000;2023-11-22T10:38:10;4.68;;;2.80;;
55300;SDS011;58302;51.446;-2.000;2023-11-22T10:40:39;3.80;;;2.80;;
55300;SDS011;58302;51.446;-2.000;2023-11-22T10:43:06;5.25;;;3.30;;
55300;SDS011;58302;51.446;-2.000;2023-11-22T10:45:34;7.00;;;3.15;;
55300;SDS011;58302;51.446;-2.000;2023-11-22T10:48:01;5.10;;;3.25;;
55300;SDS011;58302;51.446;-2.000;2023-11-22T10:50:27;9.15;;;4.40;;
55300;SDS011;58302;51.446;-2.000;2023-11-22T10:52:55;8.00;;;3.65;;
55300;SDS011;58302;51.446;-2.000;2023-11-22T10:55:26;5.90;;;3.80;;
55300;SDS011;58302;51.446;-2.000;2023-11-22T10:57:54;4.65;;;3.22;;
55300;SDS011;58302;51.446;-2.000;2023-11-22T11:00:22;6.43;;;3.40;;
55300;SDS011;58302;51.446;-2.000;2023-11-22T11:02:51;3.75;;;3.17;;
55300;SDS011;58302;51.446;-2.000;2023-11-22T11:05:23;5.43;;;3.47;;
55300;SDS011;58302;51.446;-2.000;2023-11-22T11:07:55;5.03;;;3.30;;
55300;SDS011;58302;51.446;-2.000;2023-11-22T11:10:43;16.40;;;8.23;;
55300;SDS011;58302;51.446;-2.000;2023-11-22T11:13:11;9.25;;;5.78;;
55300;SDS011;58302;51.446;-2.000;2023-11-22T11:15:39;7.75;;;4.40;;
55300;SDS011;58302;51.446;-2.000;2023-11-22T11:18:06;4.40;;;2.78;;
55300;SDS011;58302;51.446;-2.000;2023-11-22T11:20:48;6.85;;;3.58;;
55300;SDS011;58302;51.446;-2.000;2023-11-22T11:23:16;4.82;;;3.13;;
55300;SDS011;58302;51.446;-2.000;2023-11-22T11:25:43;5.22;;;3.13;;
55300;SDS011;58302;51.446;-2.000;2023-11-22T11:28:12;5.72;;;3.75;;
55300;SDS011;58302;51.446;-2.000;2023-11-22T11:30:42;4.53;;;2.83;;
55300;SDS011;58302;51.446;-2.000;2023-11-22T11:33:18;5.00;;;2.65;;
55300;SDS011;58302;51.446;-2.000;2023-11-22T11:35:51;2.95;;;2.28;;
55300;SDS011;58302;51.446;-2.000;2023-11-22T11:38:20;4.93;;;3.63;;
55300;SDS011;58302;51.446;-2.000;2023-11-22T11:40:47;3.47;;;2.83;;
55300;SDS011;58302;51.446;-2.000;2023-11-22T11:43:14;4.50;;;2.85;;
55300;SDS011;58302;51.446;-2.000;2023-11-22T11:45:41;3.58;;;2.53;;
55300;SDS011;58302;51.446;-2.000;2023-11-22T11:48:14;3.20;;;2.38;;
55300;SDS011;58302;51.446;-2.000;2023-11-22T11:50:41;2.80;;;2.35;;
55300;SDS011;58302;51.446;-2.000;2023-11-22T11:53:08;6.55;;;3.35;;
55300;SDS011;58302;51.446;-2.000;2023-11-22T11:55:37;4.00;;;2.35;;
55300;SDS011;58302;51.446;-2.000;2023-11-22T11:58:04;7.18;;;2.80;;
55300;SDS011;58302;51.446;-2.000;2023-11-22T12:00:30;3.78;;;2.85;;
55300;SDS011;58302;51.446;-2.000;2023-11-22T12:02:56;6.07;;;3.30;;
55300;SDS011;58302;51.446;-2.000;2023-11-22T12:05:22;3.80;;;2.50;;
55300;SDS011;58302;51.446;-2.000;2023-11-22T12:07:50;4.00;;;2.92;;
55300;SDS011;58302;51.446;-2.000;2023-11-22T12:10:16;4.78;;;2.65;;
55300;SDS011;58302;51.446;-2.000;2023-11-22T12:12:43;3.83;;;2.90;;
55300;SDS011;58302;51.446;-2.000;2023-11-22T12:15:11;7.53;;;2.67;;
55300;SDS011;58302;51.446;-2.000;2023-11-22T12:17:37;7.03;;;2.90;;
55300;SDS011;58302;51.446;-2.000;2023-11-22T12:20:10;6.68;;;2.97;;
55300;SDS011;58302;51.446;-2.000;2023-11-22T12:22:41;4.45;;;2.53;;
55300;SDS011;58302;51.446;-2.000;2023-11-22T12:25:07;3.55;;;2.00;;
55300;SDS011;58302;51.446;-2.000;2023-11-22T12:27:34;7.00;;;2.95;;
55300;SDS011;58302;51.446;-2.000;2023-11-22T12:30:04;3.22;;;2.40;;
55300;SDS011;58302;51.446;-2.000;2023-11-22T12:32:32;4.93;;;2.85;;
55300;SDS011;58302;51.446;-2.000;2023-11-22T12:34:58;3.63;;;2.28;;
55300;SDS011;58302;51.446;-2.000;2023-11-22T12:37:26;3.60;;;2.53;;
55300;SDS011;58302;51.446;-2.000;2023-11-22T12:39:52;10.13;;;4.35;;
55300;SDS011;58302;51.446;-2.000;2023-11-22T12:42:21;3.65;;;2.65;;
55300;SDS011;58302;51.446;-2.000;2023-11-22T12:44:50;5.30;;;2.80;;
55300;SDS011;58302;51.446;-2.000;2023-11-22T12:47:30;2.83;;;2.42;;
55300;SDS011;58302;51.446;-2.000;2023-11-22T12:50:03;5.68;;;2.33;;
55300;SDS011;58302;51.446;-2.000;2023-11-22T12:52:29;3.33;;;2.85;;
55300;SDS011;58302;51.446;-2.000;2023-11-22T12:54:58;5.47;;;2.55;;
55300;SDS011;58302;51.446;-2.000;2023-11-22T12:57:24;7.82;;;3.13;;
55300;SDS011;58302;51.446;-2.000;2023-11-22T12:59:51;4.22;;;2.50;;
55300;SDS011;58302;51.446;-2.000;2023-11-22T13:02:18;6.60;;;3.03;;
55300;SDS011;58302;51.446;-2.000;2023-11-22T13:04:44;4.80;;;2.17;;
55300;SDS011;58302;51.446;-2.000;2023-11-22T13:07:11;6.20;;;2.35;;
55300;SDS011;58302;51.446;-2.000;2023-11-22T13:09:37;8.80;;;3.78;;
55300;SDS011;58302;51.446;-2.000;2023-11-22T13:12:04;6.28;;;3.10;;
55300;SDS011;58302;51.446;-2.000;2023-11-22T13:14:30;6.18;;;3.40;;
55300;SDS011;58302;51.446;-2.000;2023-11-22T13:17:01;4.15;;;2.63;;
55300;SDS011;58302;51.446;-2.000;2023-11-22T13:19:27;4.40;;;2.80;;
55300;SDS011;58302;51.446;-2.000;2023-11-22T13:21:53;3.72;;;2.53;;
55300;SDS011;58302;51.446;-2.000;2023-11-22T13:24:19;6.68;;;3.15;;
55300;SDS011;58302;51.446;-2.000;2023-11-22T13:26:46;6.47;;;3.45;;
55300;SDS011;58302;51.446;-2.000;2023-11-22T13:29:12;4.57;;;2.65;;
55300;SDS011;58302;51.446;-2.000;2023-11-22T13:31:38;5.03;;;2.70;;
55300;SDS011;58302;51.446;-2.000;2023-11-22T13:34:05;8.73;;;3.40;;
55300;SDS011;58302;51.446;-2.000;2023-11-22T13:36:31;6.43;;;3.10;;
55300;SDS011;58302;51.446;-2.000;2023-11-22T13:38:57;5.18;;;2.60;;
55300;SDS011;58302;51.446;-2.000;2023-11-22T13:41:23;6.97;;;2.78;;
55300;SDS011;58302;51.446;-2.000;2023-11-22T13:43:50;4.43;;;2.63;;
55300;SDS011;58302;51.446;-2.000;2023-11-22T13:46:16;4.85;;;2.63;;
55300;SDS011;58302;51.446;-2.000;2023-11-22T13:48:42;7.88;;;3.45;;
55300;SDS011;58302;51.446;-2.000;2023-11-22T13:51:09;6.50;;;3.08;;
55300;SDS011;58302;51.446;-2.000;2023-11-22T13:53:36;3.40;;;3.08;;
55300;SDS011;58302;51.446;-2.000;2023-11-22T13:56:05;5.30;;;3.03;;
55300;SDS011;58302;51.446;-2.000;2023-11-22T13:58:34;5.18;;;2.83;;
55300;SDS011;58302;51.446;-2.000;2023-11-22T14:01:01;4.47;;;2.50;;
55300;SDS011;58302;51.446;-2.000;2023-11-22T14:03:28;4.40;;;2.78;;
55300;SDS011;58302;51.446;-2.000;2023-11-22T14:05:54;3.95;;;2.70;;
55300;SDS011;58302;51.446;-2.000;2023-11-22T14:08:23;3.50;;;3.22;;
55300;SDS011;58302;51.446;-2.000;2023-11-22T14:10:50;6.35;;;3.20;;
55300;SDS011;58302;51.446;-2.000;2023-11-22T14:13:15;6.75;;;2.97;;
55300;SDS011;58302;51.446;-2.000;2023-11-22T14:15:42;5.90;;;2.95;;
55300;SDS011;58302;51.446;-2.000;2023-11-22T14:18:08;4.05;;;3.30;;
55300;SDS011;58302;51.446;-2.000;2023-11-22T14:20:34;5.57;;;2.95;;
55300;SDS011;58302;51.446;-2.000;2023-11-22T14:23:00;4.22;;;3.00;;
55300;SDS011;58302;51.446;-2.000;2023-11-22T14:25:26;7.22;;;2.92;;
55300;SDS011;58302;51.446;-2.000;2023-11-22T14:27:54;4.38;;;2.92;;
55300;SDS011;58302;51.446;-2.000;2023-11-22T14:30:22;4.72;;;3.00;;
55300;SDS011;58302;51.446;-2.000;2023-11-22T14:32:50;13.07;;;5.20;;
55300;SDS011;58302;51.446;-2.000;2023-11-22T14:35:16;8.88;;;4.68;;
55300;SDS011;58302;51.446;-2.000;2023-11-22T14:37:43;7.00;;;5.85;;